sensor_id;sensor_type;location;lat;lon;timestamp;pressure;altitude;pressure_sealevel;temperature;humidity
50672;BME280;46021;55.882;37.654;2023-12-29T00:00:30;98711.06;;;-5.00;73.34
50672;BME280;46021;55.882;37.654;2023-12-29T00:02:57;98731.69;;;-4.79;72.86
50672;BME280;46021;55.882;37.654;2023-12-29T00:05:25;98713.88;;;-4.82;73.25
50672;BME280;46021;55.882;37.654;2023-12-29T00:07:53;98719.84;;;-4.77;72.95
50672;BME280;46021;55.882;37.654;2023-12-29T00:10:20;98723.25;;;-4.78;73.60
50672;BME280;46021;55.882;37.654;2023-12-29T00:12:48;98715.66;;;-4.73;72.54
50672;BME280;46021;55.882;37.654;2023-12-29T00:15:17;98634.59;;;-5.17;72.91
50672;BME280;46021;55.882;37.654;2023-12-29T00:17:47;98680.72;;;-4.88;73.31
50672;BME280;46021;55.882;37.654;2023-12-29T00:20:16;98631.34;;;-5.05;73.09
50672;BME280;46021;55.882;37.654;2023-12-29T00:22:44;98547.69;;;-5.54;72.46
50672;BME280;46021;55.882;37.654;2023-12-29T00:25:15;98618.63;;;-5.07;72.72
50672;BME280;46021;55.882;37.654;2023-12-29T00:27:44;98679.22;;;-4.74;73.42
50672;BME280;46021;55.882;37.654;2023-12-29T00:30:12;98680.97;;;-4.70;73.45
50672;BME280;46021;55.882;37.654;2023-12-29T00:32:39;98497.38;;;-5.83;72.76
50672;BME280;46021;55.882;37.654;2023-12-29T00:35:11;98663.97;;;-4.74;73.53
50672;BME280;46021;55.882;37.654;2023-12-29T00:37:39;98513.59;;;-5.73;72.82
50672;BME280;46021;55.882;37.654;2023-12-29T00:40:07;98646.09;;;-4.78;72.98
50672;BME280;46021;55.882;37.654;2023-12-29T00:42:35;98605.88;;;-5.12;72.88
50672;BME280;46021;55.882;37.654;2023-12-29T00:45:04;98582.94;;;-5.16;72.62
50672;BME280;46021;55.882;37.654;2023-12-29T00:47:32;98618.06;;;-4.87;72.70
50672;BME280;46021;55.882;37.654;2023-12-29T00:50:00;98561.75;;;-5.17;73.03
50672;BME280;46021;55.882;37.654;2023-12-29T00:52:30;98630.06;;;-4.73;73.31
50672;BME280;46021;55.882;37.654;2023-12-29T00:54:58;98636.06;;;-4.71;73.13
50672;BME280;46021;55.882;37.654;2023-12-29T00:57:29;98642.00;;;-4.70;72.53
50672;BME280;46021;55.882;37.654;2023-12-29T00:59:56;98636.91;;;-4.70;73.33
50672;BME280;46021;55.882;37.654;2023-12-29T01:02:24;98549.00;;;-5.21;73.25
50672;BME280;46021;55.882;37.654;2023-12-29T01:04:52;98538.84;;;-5.21;72.92
50672;BME280;46021;55.882;37.654;2023-12-29T01:07:20;98602.03;;;-4.82;73.40
50672;BME280;46021;55.882;37.654;2023-12-29T01:09:49;98524.44;;;-5.21;72.53
50672;BME280;46021;55.882;37.654;2023-12-29T01:12:17;98580.06;;;-4.74;72.92
50672;BME280;46021;55.882;37.654;2023-12-29T01:14:45;98548.59;;;-4.85;72.34
50672;BME280;46021;55.882;37.654;2023-12-29T01:17:12;98477.00;;;-5.22;72.79
50672;BME280;46021;55.882;37.654;2023-12-29T01:19:40;98609.13;;;-4.50;73.11
50672;BME280;46021;55.882;37.654;2023-12-29T01:22:08;98591.25;;;-4.61;73.05
50672;BME280;46021;55.882;37.654;2023-12-29T01:24:35;98554.53;;;-4.84;73.04
50672;BME280;46021;55.882;37.654;2023-12-29T01:27:04;98602.41;;;-4.46;73.07
50672;BME280;46021;55.882;37.654;2023-12-29T01:29:32;98534.16;;;-4.86;73.10
50672;BME280;46021;55.882;37.654;2023-12-29T01:32:01;98501.72;;;-5.09;72.56
50672;BME280;46021;55.882;37.654;2023-12-29T01:34:29;98550.59;;;-4.59;72.32
50672;BME280;46021;55.882;37.654;2023-12-29T01:36:59;98458.63;;;-4.99;72.77
50672;BME280;46021;55.882;37.654;2023-12-29T01:39:26;98560.16;;;-4.32;72.30
50672;BME280;46021;55.882;37.654;2023-12-29T01:41:55;98455.50;;;-4.74;72.72
50672;BME280;46021;55.882;37.654;2023-12-29T01:44:24;98546.69;;;-4.20;72.36
50672;BME280;46021;55.882;37.654;2023-12-29T01:46:54;98378.75;;;-5.29;72.39
50672;BME280;46021;55.882;37.654;2023-12-29T01:49:25;98404.28;;;-5.14;73.04
50672;BME280;46021;55.882;37.654;2023-12-29T01:51:55;98455.41;;;-4.84;72.85
50672;BME280;46021;55.882;37.654;2023-12-29T01:54:24;98456.22;;;-4.87;72.19
50672;BME280;46021;55.882;37.654;2023-12-29T01:56:54;98366.88;;;-5.30;72.92
50672;BME280;46021;55.882;37.654;2023-12-29T01:59:25;98395.91;;;-5.06;72.89
50672;BME280;46021;55.882;37.654;2023-12-29T02:01:54;98499.97;;;-4.30;72.17
50672;BME280;46021;55.882;37.654;2023-12-29T02:04:24;98326.97;;;-5.42;73.12
50672;BME280;46021;55.882;37.654;2023-12-29T02:06:54;98371.28;;;-5.09;72.51
50672;BME280;46021;55.882;37.654;2023-12-29T02:09:24;98332.06;;;-5.37;72.07
50672;BME280;46021;55.882;37.654;2023-12-29T02:11:52;98498.31;;;-4.26;72.63
50672;BME280;46021;55.882;37.654;2023-12-29T02:14:20;98336.34;;;-5.33;72.56
50672;BME280;46021;55.882;37.654;2023-12-29T02:16:56;98439.47;;;-4.66;72.25
50672;BME280;46021;55.882;37.654;2023-12-29T02:19:46;98479.59;;;-4.35;73.23
50672;BME280;46021;55.882;37.654;2023-12-29T02:22:18;98493.19;;;-4.29;73.10
50672;BME280;46021;55.882;37.654;2023-12-29T02:24:48;98295.66;;;-5.42;71.80
50672;BME280;46021;55.882;37.654;2023-12-29T02:27:25;98478.78;;;-4.27;72.61
50672;BME280;46021;55.882;37.654;2023-12-29T02:30:06;98304.19;;;-5.34;72.81
50672;BME280;46021;55.882;37.654;2023-12-29T02:32:38;98311.13;;;-5.18;72.32
50672;BME280;46021;55.882;37.654;2023-12-29T02:35:16;98411.56;;;-4.60;72.92
50672;BME280;46021;55.882;37.654;2023-12-29T02:37:46;98473.00;;;-4.09;73.08
50672;BME280;46021;55.882;37.654;2023-12-29T02:40:21;98312.94;;;-5.01;72.13
50672;BME280;46021;55.882;37.654;2023-12-29T02:42:49;98372.56;;;-4.61;72.54
50672;BME280;46021;55.882;37.654;2023-12-29T02:45:20;98387.94;;;-4.44;72.17
50672;BME280;46021;55.882;37.654;2023-12-29T02:47:51;98381.19;;;-4.37;72.13
50672;BME280;46021;55.882;37.654;2023-12-29T02:50:20;98243.38;;;-5.16;71.99
50672;BME280;46021;55.882;37.654;2023-12-29T02:52:48;98445.94;;;-3.94;72.20
50672;BME280;46021;55.882;37.654;2023-12-29T02:55:17;98437.44;;;-3.96;71.75
50672;BME280;46021;55.882;37.654;2023-12-29T02:57:45;98347.22;;;-4.47;72.84
50672;BME280;46021;55.882;37.654;2023-12-29T03:00:13;98429.84;;;-3.88;71.86
50672;BME280;46021;55.882;37.654;2023-12-29T03:02:45;98354.09;;;-4.34;72.68
50672;BME280;46021;55.882;37.654;2023-12-29T03:05:16;98404.28;;;-4.09;72.33
50672;BME280;46021;55.882;37.654;2023-12-29T03:07:47;98383.91;;;-4.13;73.19
50672;BME280;46021;55.882;37.654;2023-12-29T03:10:18;98423.03;;;-3.97;72.06
50672;BME280;46021;55.882;37.654;2023-12-29T03:12:46;98402.63;;;-4.04;72.29
50672;BME280;46021;55.882;37.654;2023-12-29T03:15:18;98330.25;;;-4.48;73.29
50672;BME280;46021;55.882;37.654;2023-12-29T03:17:50;98413.72;;;-3.90;72.42
50672;BME280;46021;55.882;37.654;2023-12-29T03:20:18;98324.41;;;-4.38;72.16
50672;BME280;46021;55.882;37.654;2023-12-29T03:22:46;98229.13;;;-4.97;72.76
50672;BME280;46021;55.882;37.654;2023-12-29T03:25:13;98370.38;;;-4.04;71.93
50672;BME280;46021;55.882;37.654;2023-12-29T03:27:43;98372.97;;;-3.98;72.79
50672;BME280;46021;55.882;37.654;2023-12-29T03:30:12;98212.19;;;-4.96;72.68
50672;BME280;46021;55.882;37.654;2023-12-29T03:32:40;98321.88;;;-4.32;72.16
50672;BME280;46021;55.882;37.654;2023-12-29T03:35:07;98292.94;;;-4.55;72.52
50672;BME280;46021;55.882;37.654;2023-12-29T03:37:35;98401.00;;;-3.88;73.06
50672;BME280;46021;55.882;37.654;2023-12-29T03:40:04;98260.56;;;-4.79;72.34
50672;BME280;46021;55.882;37.654;2023-12-29T03:42:32;98365.25;;;-4.08;73.09
50672;BME280;46021;55.882;37.654;2023-12-29T03:45:03;98376.38;;;-3.89;72.07
50672;BME280;46021;55.882;37.654;2023-12-29T03:47:30;98274.34;;;-4.42;72.30
50672;BME280;46021;55.882;37.654;2023-12-29T03:49:59;98368.75;;;-3.93;71.73
50672;BME280;46021;55.882;37.654;2023-12-29T03:52:26;98356.84;;;-3.98;72.25
50672;BME280;46021;55.882;37.654;2023-12-29T03:54:54;98361.94;;;-3.94;73.46
50672;BME280;46021;55.882;37.654;2023-12-29T03:57:25;98285.38;;;-4.37;72.09
50672;BME280;46021;55.882;37.654;2023-12-29T03:59:53;98249.63;;;-4.67;72.76
50672;BME280;46021;55.882;37.654;2023-12-29T04:02:23;98150.25;;;-5.11;72.09
50672;BME280;46021;55.882;37.654;2023-12-29T04:04:51;98347.53;;;-3.92;72.08
50672;BME280;46021;55.882;37.654;2023-12-29T04:07:18;98245.47;;;-4.55;73.01
50672;BME280;46021;55.882;37.654;2023-12-29T04:09:46;98309.25;;;-4.15;72.73
50672;BME280;46021;55.882;37.654;2023-12-29T04:12:14;98253.22;;;-4.30;73.20
50672;BME280;46021;55.882;37.654;2023-12-29T04:14:43;98277.03;;;-4.17;72.48
50672;BME280;46021;55.882;37.654;2023-12-29T04:17:11;98211.56;;;-4.52;72.89
50672;BME280;46021;55.882;37.654;2023-12-29T04:19:42;98251.53;;;-4.25;72.82
50672;BME280;46021;55.882;37.654;2023-12-29T04:22:10;98322.16;;;-3.76;72.23
50672;BME280;46021;55.882;37.654;2023-12-29T04:24:40;98222.69;;;-4.30;73.85
50672;BME280;46021;55.882;37.654;2023-12-29T04:27:07;98310.25;;;-3.73;72.48
50672;BME280;46021;55.882;37.654;2023-12-29T04:29:35;98310.28;;;-3.74;73.29
50672;BME280;46021;55.882;37.654;2023-12-29T04:32:04;98188.75;;;-4.38;72.50
50672;BME280;46021;55.882;37.654;2023-12-29T04:34:31;98292.44;;;-3.74;73.98
50672;BME280;46021;55.882;37.654;2023-12-29T04:37:00;98175.13;;;-4.51;73.39
50672;BME280;46021;55.882;37.654;2023-12-29T04:39:31;98204.88;;;-4.28;73.95
50672;BME280;46021;55.882;37.654;2023-12-29T04:41:58;98268.63;;;-3.93;73.68
50672;BME280;46021;55.882;37.654;2023-12-29T04:44:26;98136.09;;;-4.68;74.56
50672;BME280;46021;55.882;37.654;2023-12-29T04:46:54;98241.41;;;-4.13;73.75
50672;BME280;46021;55.882;37.654;2023-12-29T04:49:23;98109.75;;;-4.87;74.82
50672;BME280;46021;55.882;37.654;2023-12-29T04:51:51;98257.63;;;-3.81;75.48
50672;BME280;46021;55.882;37.654;2023-12-29T04:54:20;98179.44;;;-4.25;74.09
50672;BME280;46021;55.882;37.654;2023-12-29T04:56:51;98124.22;;;-4.65;75.38
50672;BME280;46021;55.882;37.654;2023-12-29T04:59:21;98144.63;;;-4.49;75.74
50672;BME280;46021;55.882;37.654;2023-12-29T05:01:55;98204.09;;;-4.15;75.63
50672;BME280;46021;55.882;37.654;2023-12-29T05:04:25;98162.41;;;-4.48;75.02
50672;BME280;46021;55.882;37.654;2023-12-29T05:06:54;98200.72;;;-4.09;75.81
50672;BME280;46021;55.882;37.654;2023-12-29T05:09:26;98246.59;;;-3.83;75.81
50672;BME280;46021;55.882;37.654;2023-12-29T05:11:53;98174.38;;;-4.22;74.37
50672;BME280;46021;55.882;37.654;2023-12-29T05:14:20;98250.03;;;-3.72;76.48
50672;BME280;46021;55.882;37.654;2023-12-29T05:16:50;98106.44;;;-4.60;76.36
50672;BME280;46021;55.882;37.654;2023-12-29T05:19:18;98065.66;;;-4.93;75.51
50672;BME280;46021;55.882;37.654;2023-12-29T05:21:46;98111.53;;;-4.57;75.70
50672;BME280;46021;55.882;37.654;2023-12-29T05:24:15;98127.63;;;-4.60;75.97
50672;BME280;46021;55.882;37.654;2023-12-29T05:26:48;98040.16;;;-5.14;75.74
50672;BME280;46021;55.882;37.654;2023-12-29T05:29:17;98227.88;;;-3.96;75.99
50672;BME280;46021;55.882;37.654;2023-12-29T05:31:48;98172.66;;;-4.33;77.15
50672;BME280;46021;55.882;37.654;2023-12-29T05:34:17;98217.69;;;-4.05;76.31
50672;BME280;46021;55.882;37.654;2023-12-29T05:36:46;98180.31;;;-4.23;76.68
50672;BME280;46021;55.882;37.654;2023-12-29T05:39:15;98204.09;;;-4.09;75.58
50672;BME280;46021;55.882;37.654;2023-12-29T05:41:45;98210.06;;;-4.02;76.96
50672;BME280;46021;55.882;37.654;2023-12-29T05:44:12;98178.59;;;-4.24;75.77
50672;BME280;46021;55.882;37.654;2023-12-29T05:46:46;98104.69;;;-4.74;76.39
50672;BME280;46021;55.882;37.654;2023-12-29T05:49:14;98138.69;;;-4.45;75.79
50672;BME280;46021;55.882;37.654;2023-12-29T05:51:41;98204.94;;;-4.01;76.95
50672;BME280;46021;55.882;37.654;2023-12-29T05:54:18;98098.78;;;-4.68;76.79
50672;BME280;46021;55.882;37.654;2023-12-29T05:56:54;98164.19;;;-4.35;76.18
50672;BME280;46021;55.882;37.654;2023-12-29T05:59:25;98151.44;;;-4.39;76.96
50672;BME280;46021;55.882;37.654;2023-12-29T06:01:58;98159.91;;;-4.40;76.29
50672;BME280;46021;55.882;37.654;2023-12-29T06:04:32;98119.97;;;-4.71;76.97
50672;BME280;46021;55.882;37.654;2023-12-29T06:07:06;98096.22;;;-4.76;77.51
50672;BME280;46021;55.882;37.654;2023-12-29T06:09:36;98072.41;;;-4.96;77.21
50672;BME280;46021;55.882;37.654;2023-12-29T06:12:17;98207.50;;;-4.10;77.66
50672;BME280;46021;55.882;37.654;2023-12-29T06:14:49;98185.41;;;-4.19;78.86
50672;BME280;46021;55.882;37.654;2023-12-29T06:17:21;98159.94;;;-4.29;77.48
50672;BME280;46021;55.882;37.654;2023-12-29T06:19:49;98125.97;;;-4.42;78.08
50672;BME280;46021;55.882;37.654;2023-12-29T06:22:32;98033.41;;;-5.09;77.91
50672;BME280;46021;55.882;37.654;2023-12-29T06:25:04;98056.38;;;-4.87;77.57
50672;BME280;46021;55.882;37.654;2023-12-29T06:31:10;98210.91;;;-3.97;78.34
50672;BME280;46021;55.882;37.654;2023-12-29T06:34:26;98114.09;;;-4.46;77.30
50672;BME280;46021;55.882;37.654;2023-12-29T06:36:44;98179.53;;;-3.92;78.17
50672;BME280;46021;55.882;37.654;2023-12-29T06:39:17;98154.06;;;-4.01;78.01
50672;BME280;46021;55.882;37.654;2023-12-29T06:41:45;98170.22;;;-3.86;78.79
50672;BME280;46021;55.882;37.654;2023-12-29T06:44:21;98086.16;;;-4.40;78.10
50672;BME280;46021;55.882;37.654;2023-12-29T06:46:52;98041.22;;;-4.54;77.31
50672;BME280;46021;55.882;37.654;2023-12-29T06:49:20;98087.88;;;-4.16;77.99
50672;BME280;46021;55.882;37.654;2023-12-29T06:51:49;98003.88;;;-4.70;77.18
50672;BME280;46021;55.882;37.654;2023-12-29T06:54:20;98167.69;;;-3.68;76.77
50672;BME280;46021;55.882;37.654;2023-12-29T06:56:50;98002.16;;;-4.71;77.03
50672;BME280;46021;55.882;37.654;2023-12-29T06:59:48;98123.50;;;-4.01;77.27
50672;BME280;46021;55.882;37.654;2023-12-29T07:07:43;98132.88;;;-3.86;76.34
50672;BME280;46021;55.882;37.654;2023-12-29T07:10:24;97975.88;;;-4.81;76.64
50672;BME280;46021;55.882;37.654;2023-12-29T07:13:02;98155.81;;;-3.72;76.91
50672;BME280;46021;55.882;37.654;2023-12-29T07:15:36;98076.84;;;-4.18;76.22
50672;BME280;46021;55.882;37.654;2023-12-29T07:18:05;97967.41;;;-4.95;77.65
50672;BME280;46021;55.882;37.654;2023-12-29T07:20:33;98037.81;;;-4.37;77.32
50672;BME280;46021;55.882;37.654;2023-12-29T07:23:04;98112.50;;;-3.95;77.84
50672;BME280;46021;55.882;37.654;2023-12-29T07:25:33;98022.53;;;-4.59;77.17
50672;BME280;46021;55.882;37.654;2023-12-29T07:28:04;98162.56;;;-3.80;76.71
50672;BME280;46021;55.882;37.654;2023-12-29T07:30:33;97989.44;;;-4.85;77.90
50672;BME280;46021;55.882;37.654;2023-12-29T07:33:01;98068.38;;;-4.25;78.06
50672;BME280;46021;55.882;37.654;2023-12-29T07:35:34;98128.66;;;-3.85;77.17
50672;BME280;46021;55.882;37.654;2023-12-29T07:38:07;98036.13;;;-4.35;77.89
50672;BME280;46021;55.882;37.654;2023-12-29T07:40:40;98070.94;;;-4.17;77.03
50672;BME280;46021;55.882;37.654;2023-12-29T07:43:10;98149.00;;;-3.58;77.45
50672;BME280;46021;55.882;37.654;2023-12-29T07:45:40;98072.63;;;-4.04;76.91
50672;BME280;46021;55.882;37.654;2023-12-29T07:48:12;97953.88;;;-4.73;76.57
50672;BME280;46021;55.882;37.654;2023-12-29T07:50:43;97929.28;;;-4.91;77.06
50672;BME280;46021;55.882;37.654;2023-12-29T07:53:29;98107.44;;;-3.89;78.19
50672;BME280;46021;55.882;37.654;2023-12-29T07:56:10;97967.44;;;-4.52;77.02
50672;BME280;46021;55.882;37.654;2023-12-29T07:58:38;98049.72;;;-3.99;77.82
50672;BME280;46021;55.882;37.654;2023-12-29T08:01:11;98011.53;;;-4.16;76.66
50672;BME280;46021;55.882;37.654;2023-12-29T08:03:40;98021.72;;;-3.99;76.53
50672;BME280;46021;55.882;37.654;2023-12-29T08:06:11;97997.97;;;-4.18;77.00
50672;BME280;46021;55.882;37.654;2023-12-29T08:08:42;98127.75;;;-3.35;76.89
50672;BME280;46021;55.882;37.654;2023-12-29T08:11:14;98025.97;;;-3.92;76.89
50672;BME280;46021;55.882;37.654;2023-12-29T08:13:44;98020.03;;;-3.86;76.16
50672;BME280;46021;55.882;37.654;2023-12-29T08:16:13;98052.25;;;-3.82;76.71
50672;BME280;46021;55.882;37.654;2023-12-29T08:18:53;98057.31;;;-3.67;76.86
50672;BME280;46021;55.882;37.654;2023-12-29T08:21:46;97949.66;;;-4.27;76.62
50672;BME280;46021;55.882;37.654;2023-12-29T08:24:19;97937.78;;;-4.33;77.27
50672;BME280;46021;55.882;37.654;2023-12-29T08:26:54;98135.38;;;-3.10;76.71
50672;BME280;46021;55.882;37.654;2023-12-29T08:29:27;98005.56;;;-3.66;76.63
50672;BME280;46021;55.882;37.654;2023-12-29T08:31:54;98026.75;;;-3.53;76.88
50672;BME280;46021;55.882;37.654;2023-12-29T08:34:27;98004.69;;;-3.53;76.29
50672;BME280;46021;55.882;37.654;2023-12-29T08:36:55;98087.72;;;-2.87;76.88
50672;BME280;46021;55.882;37.654;2023-12-29T08:39:28;98026.63;;;-3.13;76.42
50672;BME280;46021;55.882;37.654;2023-12-29T08:41:58;98063.94;;;-2.89;76.72
50672;BME280;46021;55.882;37.654;2023-12-29T08:47:48;97894.44;;;-3.92;76.02
50672;BME280;46021;55.882;37.654;2023-12-29T08:53:47;98001.19;;;-3.19;76.04
50672;BME280;46021;55.882;37.654;2023-12-29T08:56:31;98008.84;;;-3.22;76.48
50672;BME280;46021;55.882;37.654;2023-12-29T08:59:02;97930.03;;;-3.70;76.26
50672;BME280;46021;55.882;37.654;2023-12-29T09:01:32;97997.81;;;-3.29;75.78
50672;BME280;46021;55.882;37.654;2023-12-29T09:04:03;97913.09;;;-3.86;76.64
50672;BME280;46021;55.882;37.654;2023-12-29T09:06:38;97994.41;;;-3.28;76.30
50672;BME280;46021;55.882;37.654;2023-12-29T09:09:08;98034.22;;;-2.99;77.01
50672;BME280;46021;55.882;37.654;2023-12-29T09:11:41;97999.50;;;-3.25;76.94
50672;BME280;46021;55.882;37.654;2023-12-29T09:14:11;98024.94;;;-3.08;77.13
50672;BME280;46021;55.882;37.654;2023-12-29T09:16:48;97907.13;;;-3.72;76.38
50672;BME280;46021;55.882;37.654;2023-12-29T09:19:55;97989.22;;;-3.02;76.21
50672;BME280;46021;55.882;37.654;2023-12-29T09:22:24;97948.56;;;-3.28;76.86
50672;BME280;46021;55.882;37.654;2023-12-29T09:24:55;98079.03;;;-2.50;76.47
50672;BME280;46021;55.882;37.654;2023-12-29T09:30:28;97945.00;;;-2.96;77.13
50672;BME280;46021;55.882;37.654;2023-12-29T09:32:58;97990.66;;;-2.59;76.56
50672;BME280;46021;55.882;37.654;2023-12-29T09:35:26;98038.06;;;-2.24;76.31
50672;BME280;46021;55.882;37.654;2023-12-29T09:37:57;98051.56;;;-2.10;76.81
50672;BME280;46021;55.882;37.654;2023-12-29T09:46:16;98020.16;;;-2.21;76.22
50672;BME280;46021;55.882;37.654;2023-12-29T09:48:52;98014.34;;;-2.39;76.69
50672;BME280;46021;55.882;37.654;2023-12-29T09:51:27;97991.47;;;-2.56;76.44
50672;BME280;46021;55.882;37.654;2023-12-29T09:54:21;97857.66;;;-3.27;76.42
50672;BME280;46021;55.882;37.654;2023-12-29T09:56:55;98043.13;;;-2.18;76.88
50672;BME280;46021;55.882;37.654;2023-12-29T10:00:02;97954.16;;;-2.67;77.06
50672;BME280;46021;55.882;37.654;2023-12-29T10:02:40;97854.28;;;-3.28;77.17
50672;BME280;46021;55.882;37.654;2023-12-29T10:05:14;97949.84;;;-2.59;76.82
50672;BME280;46021;55.882;37.654;2023-12-29T10:07:47;98038.88;;;-2.19;77.48
50672;BME280;46021;55.882;37.654;2023-12-29T10:10:20;97825.47;;;-3.42;77.69
50672;BME280;46021;55.882;37.654;2023-12-29T10:12:51;97846.56;;;-3.16;76.68
50672;BME280;46021;55.882;37.654;2023-12-29T10:15:26;97898.06;;;-2.70;77.61
50672;BME280;46021;55.882;37.654;2023-12-29T10:18:06;97994.56;;;-2.12;77.74
50672;BME280;46021;55.882;37.654;2023-12-29T10:20:48;97950.53;;;-2.34;77.25
50672;BME280;46021;55.882;37.654;2023-12-29T10:23:32;98025.06;;;-1.93;77.30
50672;BME280;46021;55.882;37.654;2023-12-29T10:26:19;98036.13;;;-1.94;77.19
50672;BME280;46021;55.882;37.654;2023-12-29T10:29:22;97981.88;;;-2.21;77.86
50672;BME280;46021;55.882;37.654;2023-12-29T10:32:07;97990.28;;;-2.10;77.00
50672;BME280;46021;55.882;37.654;2023-12-29T10:35:12;97936.19;;;-2.49;77.44
50672;BME280;46021;55.882;37.654;2023-12-29T10:37:39;98017.44;;;-2.00;77.68
50672;BME280;46021;55.882;37.654;2023-12-29T10:40:17;98012.44;;;-2.12;78.03
50672;BME280;46021;55.882;37.654;2023-12-29T10:42:54;97870.19;;;-2.89;78.08
50672;BME280;46021;55.882;37.654;2023-12-29T10:45:23;98007.19;;;-1.93;77.73
50672;BME280;46021;55.882;37.654;2023-12-29T10:47:53;97869.16;;;-2.71;78.49
50672;BME280;46021;55.882;37.654;2023-12-29T10:50:27;97888.59;;;-2.56;78.14
50672;BME280;46021;55.882;37.654;2023-12-29T10:53:12;97878.34;;;-2.50;78.56
50672;BME280;46021;55.882;37.654;2023-12-29T10:56:18;97909.69;;;-2.36;77.90
50672;BME280;46021;55.882;37.654;2023-12-29T10:58:57;98002.72;;;-1.73;77.94
50672;BME280;46021;55.882;37.654;2023-12-29T11:01:26;97978.94;;;-1.80;77.98
50672;BME280;46021;55.882;37.654;2023-12-29T11:04:01;97998.53;;;-1.77;78.28
50672;BME280;46021;55.882;37.654;2023-12-29T11:06:40;98005.38;;;-1.85;78.54
50672;BME280;46021;55.882;37.654;2023-12-29T11:09:10;97974.94;;;-2.07;77.78
50672;BME280;46021;55.882;37.654;2023-12-29T11:17:21;97941.09;;;-2.27;79.45
50672;BME280;46021;55.882;37.654;2023-12-29T11:19:53;97886.81;;;-2.45;79.15
50672;BME280;46021;55.882;37.654;2023-12-29T11:22:32;98008.66;;;-1.71;79.18
50672;BME280;46021;55.882;37.654;2023-12-29T11:25:08;97829.25;;;-2.73;78.78
50672;BME280;46021;55.882;37.654;2023-12-29T11:27:39;97953.69;;;-2.06;79.52
50672;BME280;46021;55.882;37.654;2023-12-29T11:30:09;98012.00;;;-1.63;79.57
50672;BME280;46021;55.882;37.654;2023-12-29T11:32:43;97998.38;;;-1.62;79.54
50672;BME280;46021;55.882;37.654;2023-12-29T11:35:35;97872.38;;;-2.47;80.14
50672;BME280;46021;55.882;37.654;2023-12-29T11:38:21;97882.47;;;-2.33;79.78
50672;BME280;46021;55.882;37.654;2023-12-29T11:40:59;97856.19;;;-2.45;79.15
50672;BME280;46021;55.882;37.654;2023-12-29T11:43:31;97932.28;;;-1.96;80.07
50672;BME280;46021;55.882;37.654;2023-12-29T11:45:59;97950.94;;;-1.87;80.49
50672;BME280;46021;55.882;37.654;2023-12-29T11:48:54;97942.50;;;-1.96;79.87
50672;BME280;46021;55.882;37.654;2023-12-29T11:51:31;97891.63;;;-2.14;80.18
50672;BME280;46021;55.882;37.654;2023-12-29T11:54:06;98016.16;;;-1.51;81.08
50672;BME280;46021;55.882;37.654;2023-12-29T11:56:42;97898.44;;;-2.16;79.89
50672;BME280;46021;55.882;37.654;2023-12-29T11:59:16;97896.72;;;-2.14;80.14
50672;BME280;46021;55.882;37.654;2023-12-29T12:01:52;98011.69;;;-1.33;80.64
50672;BME280;46021;55.882;37.654;2023-12-29T12:04:38;97906.69;;;-1.89;80.25
50672;BME280;46021;55.882;37.654;2023-12-29T12:07:16;97927.84;;;-1.77;80.84
50672;BME280;46021;55.882;37.654;2023-12-29T12:09:48;97929.50;;;-1.74;80.44
50672;BME280;46021;55.882;37.654;2023-12-29T12:12:40;97983.69;;;-1.44;81.29
50672;BME280;46021;55.882;37.654;2023-12-29T12:15:31;98003.31;;;-1.48;81.40
50672;BME280;46021;55.882;37.654;2023-12-29T12:18:01;97986.22;;;-1.41;81.30
50672;BME280;46021;55.882;37.654;2023-12-29T12:20:32;98015.09;;;-1.33;81.80
50672;BME280;46021;55.882;37.654;2023-12-29T12:23:10;98005.69;;;-1.29;80.84
50672;BME280;46021;55.882;37.654;2023-12-29T12:25:42;98026.94;;;-1.26;81.88
50672;BME280;46021;55.882;37.654;2023-12-29T12:28:14;97806.13;;;-2.55;82.33
50672;BME280;46021;55.882;37.654;2023-12-29T12:30:43;97992.19;;;-1.41;82.15
50672;BME280;46021;55.882;37.654;2023-12-29T12:33:13;98026.94;;;-1.26;82.25
50672;BME280;46021;55.882;37.654;2023-12-29T12:35:41;97991.16;;;-1.26;81.69
50672;BME280;46021;55.882;37.654;2023-12-29T12:38:12;98016.63;;;-1.16;81.77
50672;BME280;46021;55.882;37.654;2023-12-29T12:40:45;97939.59;;;-1.59;82.44
50672;BME280;46021;55.882;37.654;2023-12-29T12:43:14;97943.88;;;-1.61;82.22
50672;BME280;46021;55.882;37.654;2023-12-29T12:45:47;97957.31;;;-1.46;82.17
50672;BME280;46021;55.882;37.654;2023-12-29T12:48:28;98030.94;;;-1.02;82.17
50672;BME280;46021;55.882;37.654;2023-12-29T12:51:00;98003.00;;;-1.19;82.55
50672;BME280;46021;55.882;37.654;2023-12-29T12:53:29;97976.84;;;-1.41;82.62
50672;BME280;46021;55.882;37.654;2023-12-29T12:56:00;98046.28;;;-1.00;83.98
50672;BME280;46021;55.882;37.654;2023-12-29T12:58:30;98029.22;;;-1.03;84.09
50672;BME280;46021;55.882;37.654;2023-12-29T13:00:59;97989.44;;;-1.25;83.55
50672;BME280;46021;55.882;37.654;2023-12-29T13:03:31;97970.78;;;-1.32;84.63
50672;BME280;46021;55.882;37.654;2023-12-29T13:06:00;97897.09;;;-1.69;83.84
50672;BME280;46021;55.882;37.654;2023-12-29T13:08:39;97999.44;;;-1.05;84.57
50672;BME280;46021;55.882;37.654;2023-12-29T13:11:13;97944.44;;;-1.37;84.12
50672;BME280;46021;55.882;37.654;2023-12-29T13:13:45;97975.72;;;-1.16;84.42
50672;BME280;46021;55.882;37.654;2023-12-29T13:16:14;98026.38;;;-0.80;84.19
50672;BME280;46021;55.882;37.654;2023-12-29T13:18:47;98010.28;;;-0.86;84.13
50672;BME280;46021;55.882;37.654;2023-12-29T13:21:17;97866.38;;;-1.63;85.36
50672;BME280;46021;55.882;37.654;2023-12-29T13:26:51;97946.69;;;-1.12;85.61
50672;BME280;46021;55.882;37.654;2023-12-29T13:29:24;98031.22;;;-0.58;85.19
50672;BME280;46021;55.882;37.654;2023-12-29T13:32:23;98024.38;;;-0.56;85.73
50672;BME280;46021;55.882;37.654;2023-12-29T13:35:04;98016.78;;;-0.62;85.37
50672;BME280;46021;55.882;37.654;2023-12-29T13:37:41;97851.91;;;-1.61;86.51
50672;BME280;46021;55.882;37.654;2023-12-29T13:40:17;97879.94;;;-1.56;86.38
50672;BME280;46021;55.882;37.654;2023-12-29T13:42:57;97886.69;;;-1.52;86.13
50672;BME280;46021;55.882;37.654;2023-12-29T13:45:30;98027.88;;;-0.63;85.94
50672;BME280;46021;55.882;37.654;2023-12-29T13:48:01;97981.19;;;-0.77;86.92
50672;BME280;46021;55.882;37.654;2023-12-29T13:50:30;97883.19;;;-1.43;85.78